Maran Canopus — SXUQ — position and weather

sailwx.info

Track history (hours):
 
Tides and Currents Weather Stations Pressure Air Temp Water Temp Dewpoint Dewpoint Depression Visibility Wind Speed Wind Dir Waves Ship Positions

Maran Canopus

Last reported at 2016-May-15 15:29 UTC. Time now 2016-May-27 00:22 UTC.
Position N 38°51' E 120°50'.
Warning: this ship's position is 11 days out of date.

Length 333 m; draft 19.7 m.

Type: Tanker. MMSI: 240677000.

Date/timePositionNaut miles runAvg speedWind from/ knotsBaromVisibWave heightAir tempDewpointWater temp
2016-May-15 15:29N 38°51' E 120°50'19 9.5
2016-May-15 13:27N 38°34' E 121°02'1211.7
2016-May-15 12:25N 38°29' E 121°16'1112.7
2016-May-15 11:33N 38°26' E 121°29'1212.3
2016-May-15 10:33N 38°22' E 121°44'14911.2
2016-May-14 21:11N 36°30' E 123°49'812.3
2016-May-14 20:33N 36°22' E 123°51'  
2016-May-06 12:33N 01°16' E 104°11'1110.7
2016-May-06 11:33N 01°14' E 104°00'7 6.7
2016-May-06 10:33N 01°13' E 103°54'10 9.8
2016-May-06 09:34N 01°08' E 103°45'1010.3
2016-May-06 08:33N 01°05' E 103°35'7512.6
2016-May-06 02:33N 01°45' E 102°31'1414.3
2016-May-06 01:33N 01°51' E 102°18'  
Track history (hours):
 
Tides and Currents Weather Stations Pressure Air Temp Water Temp Dewpoint Dewpoint Depression Visibility Wind Speed Wind Dir Waves Ship Positions

Maran Canopus

Last reported at 2016-May-15 15:29 UTC. Time now 2016-May-27 00:22 UTC.
Position N 38°51' E 120°50'.
Warning: this ship's position is 11 days out of date.

Length 333 m; draft 19.7 m.

Type: Tanker. MMSI: 240677000.

Date/timePositionNaut miles runAvg speedWind from/ knotsBaromVisibWave heightAir tempDewpointWater temp
2016-May-15 15:29N 38°51' E 120°50'19 9.5
2016-May-15 13:27N 38°34' E 121°02'1211.7
2016-May-15 12:25N 38°29' E 121°16'1112.7
2016-May-15 11:33N 38°26' E 121°29'1212.3
2016-May-15 10:33N 38°22' E 121°44'14911.2
2016-May-14 21:11N 36°30' E 123°49'812.3
2016-May-14 20:33N 36°22' E 123°51'  
2016-May-06 12:33N 01°16' E 104°11'1110.7
2016-May-06 11:33N 01°14' E 104°00'7 6.7
2016-May-06 10:33N 01°13' E 103°54'10 9.8
2016-May-06 09:34N 01°08' E 103°45'1010.3
2016-May-06 08:33N 01°05' E 103°35'7512.6
2016-May-06 02:33N 01°45' E 102°31'1414.3
2016-May-06 01:33N 01°51' E 102°18'  

Dump ship's entire track history